sensor_id;sensor_type;location;lat;lon;timestamp;P1;durP1;ratioP1;P2;durP2;ratioP2
22064;SDS011;11197;53.110;8.468;2022-12-20T00:00:49;11.88;;;6.93;;
22064;SDS011;11197;53.110;8.468;2022-12-20T00:03:16;12.35;;;6.70;;
22064;SDS011;11197;53.110;8.468;2022-12-20T00:05:42;11.00;;;6.72;;
22064;SDS011;11197;53.110;8.468;2022-12-20T00:08:08;10.23;;;6.40;;
22064;SDS011;11197;53.110;8.468;2022-12-20T00:10:35;8.68;;;6.45;;
22064;SDS011;11197;53.110;8.468;2022-12-20T00:13:01;10.30;;;6.70;;
22064;SDS011;11197;53.110;8.468;2022-12-20T00:15:27;11.98;;;6.57;;
22064;SDS011;11197;53.110;8.468;2022-12-20T00:17:53;9.90;;;6.38;;
22064;SDS011;11197;53.110;8.468;2022-12-20T00:20:19;8.82;;;6.30;;
22064;SDS011;11197;53.110;8.468;2022-12-20T00:22:45;11.43;;;6.35;;
22064;SDS011;11197;53.110;8.468;2022-12-20T00:25:11;9.60;;;6.32;;
22064;SDS011;11197;53.110;8.468;2022-12-20T00:27:37;11.38;;;6.57;;
22064;SDS011;11197;53.110;8.468;2022-12-20T00:30:03;10.27;;;6.30;;
22064;SDS011;11197;53.110;8.468;2022-12-20T00:32:30;9.82;;;6.28;;
22064;SDS011;11197;53.110;8.468;2022-12-20T00:34:56;9.43;;;6.57;;
22064;SDS011;11197;53.110;8.468;2022-12-20T00:37:23;10.05;;;6.35;;
22064;SDS011;11197;53.110;8.468;2022-12-20T00:39:49;11.05;;;6.40;;
22064;SDS011;11197;53.110;8.468;2022-12-20T00:42:16;9.25;;;6.32;;
22064;SDS011;11197;53.110;8.468;2022-12-20T00:44:43;12.32;;;6.28;;
22064;SDS011;11197;53.110;8.468;2022-12-20T00:47:09;8.95;;;6.05;;
22064;SDS011;11197;53.110;8.468;2022-12-20T00:49:35;9.73;;;6.47;;
22064;SDS011;11197;53.110;8.468;2022-12-20T00:52:01;10.15;;;6.18;;
22064;SDS011;11197;53.110;8.468;2022-12-20T00:54:27;10.45;;;6.75;;
22064;SDS011;11197;53.110;8.468;2022-12-20T00:56:53;10.25;;;6.40;;
22064;SDS011;11197;53.110;8.468;2022-12-20T00:59:19;10.50;;;6.07;;
22064;SDS011;11197;53.110;8.468;2022-12-20T01:01:45;9.75;;;6.43;;
22064;SDS011;11197;53.110;8.468;2022-12-20T01:04:11;9.65;;;6.38;;
22064;SDS011;11197;53.110;8.468;2022-12-20T01:06:40;11.63;;;6.38;;
22064;SDS011;11197;53.110;8.468;2022-12-20T01:09:07;10.43;;;6.70;;
22064;SDS011;11197;53.110;8.468;2022-12-20T01:11:34;11.48;;;6.40;;
22064;SDS011;11197;53.110;8.468;2022-12-20T01:14:12;10.00;;;6.25;;
22064;SDS011;11197;53.110;8.468;2022-12-20T01:16:41;10.55;;;6.20;;
22064;SDS011;11197;53.110;8.468;2022-12-20T01:19:09;10.23;;;6.40;;
22064;SDS011;11197;53.110;8.468;2022-12-20T01:21:38;12.38;;;6.15;;
22064;SDS011;11197;53.110;8.468;2022-12-20T01:24:16;9.32;;;6.22;;
22064;SDS011;11197;53.110;8.468;2022-12-20T01:26:44;10.55;;;6.13;;
22064;SDS011;11197;53.110;8.468;2022-12-20T01:29:11;11.77;;;6.82;;
22064;SDS011;11197;53.110;8.468;2022-12-20T01:31:38;9.05;;;6.15;;
22064;SDS011;11197;53.110;8.468;2022-12-20T01:34:04;8.32;;;6.07;;
22064;SDS011;11197;53.110;8.468;2022-12-20T01:36:31;10.32;;;6.32;;
22064;SDS011;11197;53.110;8.468;2022-12-20T01:39:03;9.15;;;6.03;;
22064;SDS011;11197;53.110;8.468;2022-12-20T01:41:33;9.23;;;6.13;;
22064;SDS011;11197;53.110;8.468;2022-12-20T01:44:01;8.65;;;6.28;;
22064;SDS011;11197;53.110;8.468;2022-12-20T01:46:30;8.13;;;6.03;;
22064;SDS011;11197;53.110;8.468;2022-12-20T01:49:05;8.65;;;5.72;;
22064;SDS011;11197;53.110;8.468;2022-12-20T01:51:46;7.97;;;5.82;;
22064;SDS011;11197;53.110;8.468;2022-12-20T01:54:19;10.93;;;5.90;;
22064;SDS011;11197;53.110;8.468;2022-12-20T01:59:26;8.25;;;5.93;;
22064;SDS011;11197;53.110;8.468;2022-12-20T02:01:54;8.80;;;5.90;;
22064;SDS011;11197;53.110;8.468;2022-12-20T02:04:23;9.47;;;6.20;;
22064;SDS011;11197;53.110;8.468;2022-12-20T02:06:49;10.57;;;6.43;;
22064;SDS011;11197;53.110;8.468;2022-12-20T02:09:15;9.48;;;6.00;;
22064;SDS011;11197;53.110;8.468;2022-12-20T02:31:09;9.55;;;5.88;;
22064;SDS011;11197;53.110;8.468;2022-12-20T02:33:41;12.82;;;5.93;;
22064;SDS011;11197;53.110;8.468;2022-12-20T02:36:08;10.33;;;5.87;;
22064;SDS011;11197;53.110;8.468;2022-12-20T02:38:35;9.23;;;6.07;;
22064;SDS011;11197;53.110;8.468;2022-12-20T02:41:07;9.27;;;5.80;;
22064;SDS011;11197;53.110;8.468;2022-12-20T02:43:35;9.65;;;5.97;;
22064;SDS011;11197;53.110;8.468;2022-12-20T02:46:22;11.73;;;5.85;;
22064;SDS011;11197;53.110;8.468;2022-12-20T02:48:51;8.23;;;5.38;;
22064;SDS011;11197;53.110;8.468;2022-12-20T02:51:19;9.57;;;5.47;;
22064;SDS011;11197;53.110;8.468;2022-12-20T02:53:47;8.57;;;5.68;;
22064;SDS011;11197;53.110;8.468;2022-12-20T02:56:28;9.65;;;6.05;;
22064;SDS011;11197;53.110;8.468;2022-12-20T02:59:08;10.48;;;5.63;;
22064;SDS011;11197;53.110;8.468;2022-12-20T03:01:58;10.00;;;5.85;;
22064;SDS011;11197;53.110;8.468;2022-12-20T03:04:26;7.72;;;5.57;;
22064;SDS011;11197;53.110;8.468;2022-12-20T03:07:15;8.35;;;5.47;;
22064;SDS011;11197;53.110;8.468;2022-12-20T03:09:42;8.80;;;5.68;;
22064;SDS011;11197;53.110;8.468;2022-12-20T03:12:12;8.95;;;5.47;;
22064;SDS011;11197;53.110;8.468;2022-12-20T03:14:40;9.65;;;5.72;;
22064;SDS011;11197;53.110;8.468;2022-12-20T03:17:08;9.10;;;5.40;;
22064;SDS011;11197;53.110;8.468;2022-12-20T03:19:36;7.75;;;5.55;;
22064;SDS011;11197;53.110;8.468;2022-12-20T03:22:03;12.02;;;6.13;;
22064;SDS011;11197;53.110;8.468;2022-12-20T03:24:30;8.38;;;5.65;;
22064;SDS011;11197;53.110;8.468;2022-12-20T03:26:57;10.15;;;5.28;;
22064;SDS011;11197;53.110;8.468;2022-12-20T03:29:24;8.60;;;5.32;;
22064;SDS011;11197;53.110;8.468;2022-12-20T03:31:49;8.35;;;5.68;;
22064;SDS011;11197;53.110;8.468;2022-12-20T03:34:15;7.82;;;5.28;;
22064;SDS011;11197;53.110;8.468;2022-12-20T03:36:42;8.02;;;5.18;;
22064;SDS011;11197;53.110;8.468;2022-12-20T03:39:08;10.43;;;5.50;;
22064;SDS011;11197;53.110;8.468;2022-12-20T03:41:37;8.05;;;5.20;;
22064;SDS011;11197;53.110;8.468;2022-12-20T03:44:05;8.65;;;4.97;;
22064;SDS011;11197;53.110;8.468;2022-12-20T03:46:31;6.88;;;5.20;;
22064;SDS011;11197;53.110;8.468;2022-12-20T03:48:57;6.55;;;4.90;;
22064;SDS011;11197;53.110;8.468;2022-12-20T03:51:23;9.00;;;5.20;;
22064;SDS011;11197;53.110;8.468;2022-12-20T03:53:50;8.05;;;5.35;;
22064;SDS011;11197;53.110;8.468;2022-12-20T03:56:18;8.70;;;5.47;;
22064;SDS011;11197;53.110;8.468;2022-12-20T03:58:44;9.40;;;5.47;;
22064;SDS011;11197;53.110;8.468;2022-12-20T04:01:18;8.18;;;5.55;;
22064;SDS011;11197;53.110;8.468;2022-12-20T04:03:46;7.32;;;5.15;;
22064;SDS011;11197;53.110;8.468;2022-12-20T04:06:12;7.28;;;4.95;;
22064;SDS011;11197;53.110;8.468;2022-12-20T04:08:38;9.02;;;5.35;;
22064;SDS011;11197;53.110;8.468;2022-12-20T04:11:04;11.02;;;5.40;;
22064;SDS011;11197;53.110;8.468;2022-12-20T04:13:48;9.73;;;5.60;;
22064;SDS011;11197;53.110;8.468;2022-12-20T04:16:17;10.07;;;5.55;;
22064;SDS011;11197;53.110;8.468;2022-12-20T04:18:48;8.30;;;5.43;;
22064;SDS011;11197;53.110;8.468;2022-12-20T04:21:19;11.27;;;5.22;;
22064;SDS011;11197;53.110;8.468;2022-12-20T04:23:53;9.68;;;5.32;;
22064;SDS011;11197;53.110;8.468;2022-12-20T04:26:19;8.30;;;5.00;;
22064;SDS011;11197;53.110;8.468;2022-12-20T04:28:45;8.18;;;5.20;;
22064;SDS011;11197;53.110;8.468;2022-12-20T04:31:11;9.95;;;5.93;;
22064;SDS011;11197;53.110;8.468;2022-12-20T04:33:38;8.02;;;5.65;;
22064;SDS011;11197;53.110;8.468;2022-12-20T04:36:05;10.75;;;5.05;;
22064;SDS011;11197;53.110;8.468;2022-12-20T04:38:33;7.43;;;5.53;;
22064;SDS011;11197;53.110;8.468;2022-12-20T04:40:59;7.95;;;5.22;;
22064;SDS011;11197;53.110;8.468;2022-12-20T04:43:33;7.97;;;5.18;;
22064;SDS011;11197;53.110;8.468;2022-12-20T04:46:02;8.43;;;4.95;;
22064;SDS011;11197;53.110;8.468;2022-12-20T04:48:28;7.55;;;5.20;;
22064;SDS011;11197;53.110;8.468;2022-12-20T04:50:55;9.68;;;5.20;;
22064;SDS011;11197;53.110;8.468;2022-12-20T04:53:22;6.85;;;5.00;;
22064;SDS011;11197;53.110;8.468;2022-12-20T04:56:08;11.13;;;5.57;;
22064;SDS011;11197;53.110;8.468;2022-12-20T04:58:35;8.45;;;5.47;;
22064;SDS011;11197;53.110;8.468;2022-12-20T05:01:03;7.25;;;5.00;;
22064;SDS011;11197;53.110;8.468;2022-12-20T05:03:38;9.68;;;5.22;;
22064;SDS011;11197;53.110;8.468;2022-12-20T05:06:05;9.02;;;5.38;;
22064;SDS011;11197;53.110;8.468;2022-12-20T05:08:31;8.60;;;5.30;;
22064;SDS011;11197;53.110;8.468;2022-12-20T05:10:58;9.18;;;5.25;;
22064;SDS011;11197;53.110;8.468;2022-12-20T05:13:24;7.00;;;5.15;;
22064;SDS011;11197;53.110;8.468;2022-12-20T05:15:50;7.43;;;5.20;;
22064;SDS011;11197;53.110;8.468;2022-12-20T05:18:21;8.07;;;5.18;;
22064;SDS011;11197;53.110;8.468;2022-12-20T05:21:01;8.52;;;5.00;;
22064;SDS011;11197;53.110;8.468;2022-12-20T05:23:48;6.80;;;5.40;;
22064;SDS011;11197;53.110;8.468;2022-12-20T05:26:46;11.23;;;5.65;;
22064;SDS011;11197;53.110;8.468;2022-12-20T05:29:13;7.15;;;5.50;;
22064;SDS011;11197;53.110;8.468;2022-12-20T05:31:41;9.23;;;5.80;;
22064;SDS011;11197;53.110;8.468;2022-12-20T05:34:07;8.18;;;5.68;;
22064;SDS011;11197;53.110;8.468;2022-12-20T05:36:35;8.48;;;5.43;;
22064;SDS011;11197;53.110;8.468;2022-12-20T05:39:03;11.82;;;6.03;;
22064;SDS011;11197;53.110;8.468;2022-12-20T05:41:33;9.52;;;6.25;;
22064;SDS011;11197;53.110;8.468;2022-12-20T05:44:00;13.75;;;6.63;;
22064;SDS011;11197;53.110;8.468;2022-12-20T05:46:27;11.63;;;5.68;;
22064;SDS011;11197;53.110;8.468;2022-12-20T05:48:58;11.43;;;6.47;;
22064;SDS011;11197;53.110;8.468;2022-12-20T05:51:24;9.40;;;6.43;;
22064;SDS011;11197;53.110;8.468;2022-12-20T05:54:00;13.20;;;6.82;;
22064;SDS011;11197;53.110;8.468;2022-12-20T05:56:39;10.73;;;6.88;;
22064;SDS011;11197;53.110;8.468;2022-12-20T05:59:05;11.10;;;6.72;;
22064;SDS011;11197;53.110;8.468;2022-12-20T06:01:34;9.20;;;7.30;;
22064;SDS011;11197;53.110;8.468;2022-12-20T06:04:01;12.10;;;7.40;;
22064;SDS011;11197;53.110;8.468;2022-12-20T06:06:28;10.75;;;7.70;;
22064;SDS011;11197;53.110;8.468;2022-12-20T06:08:55;10.18;;;7.47;;
22064;SDS011;11197;53.110;8.468;2022-12-20T06:11:40;10.93;;;7.47;;
22064;SDS011;11197;53.110;8.468;2022-12-20T06:14:09;10.55;;;7.82;;
22064;SDS011;11197;53.110;8.468;2022-12-20T06:16:39;10.13;;;7.63;;
22064;SDS011;11197;53.110;8.468;2022-12-20T06:19:07;10.55;;;6.95;;
22064;SDS011;11197;53.110;8.468;2022-12-20T06:21:39;11.77;;;6.93;;
22064;SDS011;11197;53.110;8.468;2022-12-20T06:24:10;12.10;;;7.80;;
22064;SDS011;11197;53.110;8.468;2022-12-20T06:26:42;10.38;;;6.90;;
22064;SDS011;11197;53.110;8.468;2022-12-20T06:29:11;9.23;;;7.10;;
22064;SDS011;11197;53.110;8.468;2022-12-20T06:31:52;9.65;;;6.93;;
22064;SDS011;11197;53.110;8.468;2022-12-20T06:34:19;10.50;;;6.90;;
22064;SDS011;11197;53.110;8.468;2022-12-20T06:36:48;11.82;;;6.63;;
22064;SDS011;11197;53.110;8.468;2022-12-20T06:39:21;9.60;;;6.80;;
22064;SDS011;11197;53.110;8.468;2022-12-20T06:41:58;9.07;;;6.45;;
22064;SDS011;11197;53.110;8.468;2022-12-20T06:44:24;9.98;;;6.57;;
22064;SDS011;11197;53.110;8.468;2022-12-20T06:46:53;8.85;;;6.40;;
22064;SDS011;11197;53.110;8.468;2022-12-20T06:49:19;11.10;;;6.15;;
22064;SDS011;11197;53.110;8.468;2022-12-20T06:51:47;9.10;;;6.03;;
22064;SDS011;11197;53.110;8.468;2022-12-20T06:54:15;9.90;;;6.03;;
22064;SDS011;11197;53.110;8.468;2022-12-20T06:56:44;10.65;;;5.90;;
22064;SDS011;11197;53.110;8.468;2022-12-20T06:59:14;11.25;;;6.30;;
22064;SDS011;11197;53.110;8.468;2022-12-20T07:01:41;8.65;;;6.07;;
22064;SDS011;11197;53.110;8.468;2022-12-20T07:04:07;7.95;;;5.90;;
22064;SDS011;11197;53.110;8.468;2022-12-20T07:06:33;10.55;;;6.30;;
22064;SDS011;11197;53.110;8.468;2022-12-20T07:08:59;8.55;;;5.97;;
22064;SDS011;11197;53.110;8.468;2022-12-20T07:11:28;10.77;;;6.20;;
22064;SDS011;11197;53.110;8.468;2022-12-20T07:13:57;10.95;;;5.97;;
22064;SDS011;11197;53.110;8.468;2022-12-20T07:16:27;11.68;;;6.07;;
22064;SDS011;11197;53.110;8.468;2022-12-20T07:18:53;8.60;;;5.97;;
22064;SDS011;11197;53.110;8.468;2022-12-20T07:21:19;8.18;;;5.70;;
22064;SDS011;11197;53.110;8.468;2022-12-20T07:23:46;11.50;;;5.70;;
22064;SDS011;11197;53.110;8.468;2022-12-20T07:26:12;7.65;;;5.65;;
22064;SDS011;11197;53.110;8.468;2022-12-20T07:28:41;9.60;;;5.85;;
22064;SDS011;11197;53.110;8.468;2022-12-20T07:31:07;9.77;;;5.65;;
22064;SDS011;11197;53.110;8.468;2022-12-20T07:33:38;7.70;;;5.40;;
22064;SDS011;11197;53.110;8.468;2022-12-20T07:36:05;8.82;;;5.35;;
22064;SDS011;11197;53.110;8.468;2022-12-20T07:38:37;9.18;;;5.57;;
22064;SDS011;11197;53.110;8.468;2022-12-20T07:41:06;9.50;;;6.18;;
22064;SDS011;11197;53.110;8.468;2022-12-20T07:43:40;10.15;;;5.47;;
22064;SDS011;11197;53.110;8.468;2022-12-20T07:46:11;7.15;;;5.47;;
22064;SDS011;11197;53.110;8.468;2022-12-20T07:48:38;11.40;;;5.85;;
22064;SDS011;11197;53.110;8.468;2022-12-20T07:51:08;11.38;;;5.30;;
22064;SDS011;11197;53.110;8.468;2022-12-20T07:53:38;11.57;;;5.80;;
22064;SDS011;11197;53.110;8.468;2022-12-20T07:58:35;8.75;;;5.57;;
22064;SDS011;11197;53.110;8.468;2022-12-20T08:01:03;9.00;;;6.00;;
22064;SDS011;11197;53.110;8.468;2022-12-20T08:03:41;8.60;;;5.20;;
22064;SDS011;11197;53.110;8.468;2022-12-20T08:06:09;8.57;;;5.43;;
22064;SDS011;11197;53.110;8.468;2022-12-20T08:08:37;7.35;;;5.30;;
22064;SDS011;11197;53.110;8.468;2022-12-20T08:11:11;7.22;;;5.22;;
22064;SDS011;11197;53.110;8.468;2022-12-20T08:13:38;10.98;;;5.30;;
22064;SDS011;11197;53.110;8.468;2022-12-20T08:16:06;7.57;;;5.40;;
22064;SDS011;11197;53.110;8.468;2022-12-20T08:18:33;7.68;;;5.47;;
22064;SDS011;11197;53.110;8.468;2022-12-20T08:21:02;9.52;;;5.78;;
22064;SDS011;11197;53.110;8.468;2022-12-20T08:23:31;7.80;;;5.70;;
22064;SDS011;11197;53.110;8.468;2022-12-20T08:25:59;8.55;;;5.72;;
22064;SDS011;11197;53.110;8.468;2022-12-20T08:28:28;10.07;;;6.18;;
22064;SDS011;11197;53.110;8.468;2022-12-20T08:31:05;10.20;;;6.13;;
22064;SDS011;11197;53.110;8.468;2022-12-20T08:33:33;9.57;;;6.35;;
22064;SDS011;11197;53.110;8.468;2022-12-20T08:36:02;10.93;;;6.57;;
22064;SDS011;11197;53.110;8.468;2022-12-20T08:38:33;9.82;;;6.90;;
22064;SDS011;11197;53.110;8.468;2022-12-20T08:41:06;9.32;;;6.68;;
22064;SDS011;11197;53.110;8.468;2022-12-20T08:43:38;9.30;;;6.70;;
22064;SDS011;11197;53.110;8.468;2022-12-20T08:46:05;9.52;;;6.35;;
22064;SDS011;11197;53.110;8.468;2022-12-20T08:48:31;9.43;;;6.65;;
22064;SDS011;11197;53.110;8.468;2022-12-20T08:51:01;11.02;;;6.38;;
22064;SDS011;11197;53.110;8.468;2022-12-20T08:53:29;10.63;;;6.85;;
22064;SDS011;11197;53.110;8.468;2022-12-20T08:56:02;11.35;;;6.88;;
22064;SDS011;11197;53.110;8.468;2022-12-20T08:58:33;10.05;;;6.70;;
22064;SDS011;11197;53.110;8.468;2022-12-20T09:01:04;9.90;;;6.47;;
22064;SDS011;11197;53.110;8.468;2022-12-20T09:03:31;11.57;;;6.03;;
22064;SDS011;11197;53.110;8.468;2022-12-20T09:05:59;10.15;;;6.32;;
22064;SDS011;11197;53.110;8.468;2022-12-20T09:08:26;8.27;;;5.78;;
22064;SDS011;11197;53.110;8.468;2022-12-20T09:10:53;10.70;;;6.22;;
22064;SDS011;11197;53.110;8.468;2022-12-20T09:13:29;9.90;;;5.90;;
22064;SDS011;11197;53.110;8.468;2022-12-20T09:15:58;11.98;;;5.95;;
22064;SDS011;11197;53.110;8.468;2022-12-20T09:18:26;10.52;;;6.13;;
22064;SDS011;11197;53.110;8.468;2022-12-20T09:20:52;9.65;;;5.85;;
22064;SDS011;11197;53.110;8.468;2022-12-20T09:23:28;8.02;;;5.18;;
22064;SDS011;11197;53.110;8.468;2022-12-20T09:26:00;8.65;;;5.80;;
22064;SDS011;11197;53.110;8.468;2022-12-20T09:28:28;11.73;;;6.13;;
22064;SDS011;11197;53.110;8.468;2022-12-20T09:30:58;9.32;;;5.72;;
22064;SDS011;11197;53.110;8.468;2022-12-20T09:33:25;9.90;;;5.50;;
22064;SDS011;11197;53.110;8.468;2022-12-20T09:35:53;8.52;;;5.32;;
22064;SDS011;11197;53.110;8.468;2022-12-20T09:38:19;10.07;;;5.80;;
22064;SDS011;11197;53.110;8.468;2022-12-20T09:40:49;8.50;;;5.05;;
22064;SDS011;11197;53.110;8.468;2022-12-20T09:43:20;9.25;;;5.45;;
22064;SDS011;11197;53.110;8.468;2022-12-20T09:45:50;8.40;;;4.88;;
22064;SDS011;11197;53.110;8.468;2022-12-20T09:48:25;7.25;;;5.05;;
22064;SDS011;11197;53.110;8.468;2022-12-20T09:59:22;9.57;;;5.05;;
22064;SDS011;11197;53.110;8.468;2022-12-20T10:01:48;7.47;;;4.80;;
22064;SDS011;11197;53.110;8.468;2022-12-20T10:12:38;7.82;;;5.13;;
22064;SDS011;11197;53.110;8.468;2022-12-20T10:15:37;6.90;;;4.90;;
22064;SDS011;11197;53.110;8.468;2022-12-20T10:21:46;8.63;;;5.10;;
22064;SDS011;11197;53.110;8.468;2022-12-20T10:24:31;8.38;;;5.22;;
22064;SDS011;11197;53.110;8.468;2022-12-20T10:29:41;8.70;;;4.80;;
22064;SDS011;11197;53.110;8.468;2022-12-20T10:32:12;6.53;;;4.97;;
22064;SDS011;11197;53.110;8.468;2022-12-20T10:35:28;7.70;;;4.47;;
22064;SDS011;11197;53.110;8.468;2022-12-20T10:37:35;7.30;;;4.60;;
22064;SDS011;11197;53.110;8.468;2022-12-20T10:40:04;11.77;;;4.40;;
22064;SDS011;11197;53.110;8.468;2022-12-20T10:42:50;9.43;;;4.68;;
22064;SDS011;11197;53.110;8.468;2022-12-20T10:45:37;10.13;;;4.80;;
22064;SDS011;11197;53.110;8.468;2022-12-20T10:48:20;9.40;;;4.63;;
22064;SDS011;11197;53.110;8.468;2022-12-20T10:53:31;7.82;;;4.38;;
22064;SDS011;11197;53.110;8.468;2022-12-20T10:58:58;6.55;;;4.18;;
22064;SDS011;11197;53.110;8.468;2022-12-20T11:01:46;6.35;;;4.68;;
22064;SDS011;11197;53.110;8.468;2022-12-20T11:04:32;8.55;;;4.50;;
22064;SDS011;11197;53.110;8.468;2022-12-20T11:07:01;8.68;;;4.90;;
22064;SDS011;11197;53.110;8.468;2022-12-20T11:10:29;10.40;;;4.50;;
22064;SDS011;11197;53.110;8.468;2022-12-20T11:15:51;8.52;;;4.47;;
22064;SDS011;11197;53.110;8.468;2022-12-20T11:26:12;5.85;;;4.00;;
22064;SDS011;11197;53.110;8.468;2022-12-20T11:34:48;8.85;;;3.95;;
22064;SDS011;11197;53.110;8.468;2022-12-20T11:37:24;7.47;;;4.00;;
22064;SDS011;11197;53.110;8.468;2022-12-20T11:57:17;7.68;;;4.10;;
22064;SDS011;11197;53.110;8.468;2022-12-20T11:59:46;8.32;;;4.47;;
22064;SDS011;11197;53.110;8.468;2022-12-20T12:04:53;10.13;;;4.78;;
22064;SDS011;11197;53.110;8.468;2022-12-20T12:07:42;8.90;;;4.38;;
22064;SDS011;11197;53.110;8.468;2022-12-20T12:10:18;9.02;;;4.50;;
22064;SDS011;11197;53.110;8.468;2022-12-20T12:12:52;6.82;;;4.63;;
22064;SDS011;11197;53.110;8.468;2022-12-20T12:15:39;8.18;;;4.35;;
22064;SDS011;11197;53.110;8.468;2022-12-20T12:18:23;8.80;;;4.50;;
22064;SDS011;11197;53.110;8.468;2022-12-20T12:24:12;9.13;;;5.10;;
22064;SDS011;11197;53.110;8.468;2022-12-20T12:26:43;9.00;;;4.90;;
22064;SDS011;11197;53.110;8.468;2022-12-20T12:29:14;8.75;;;4.90;;
22064;SDS011;11197;53.110;8.468;2022-12-20T12:40:15;8.82;;;4.90;;
22064;SDS011;11197;53.110;8.468;2022-12-20T12:45:57;6.23;;;4.80;;
22064;SDS011;11197;53.110;8.468;2022-12-20T12:51:22;8.77;;;5.10;;
22064;SDS011;11197;53.110;8.468;2022-12-20T12:54:02;6.40;;;4.75;;
22064;SDS011;11197;53.110;8.468;2022-12-20T12:56:41;9.43;;;5.40;;
22064;SDS011;11197;53.110;8.468;2022-12-20T12:59:21;8.45;;;5.45;;
22064;SDS011;11197;53.110;8.468;2022-12-20T13:04:27;9.05;;;5.30;;
22064;SDS011;11197;53.110;8.468;2022-12-20T13:07:46;7.72;;;5.18;;
22064;SDS011;11197;53.110;8.468;2022-12-20T13:17:56;8.68;;;4.95;;
22064;SDS011;11197;53.110;8.468;2022-12-20T13:31:33;8.63;;;5.82;;
22064;SDS011;11197;53.110;8.468;2022-12-20T13:43:55;7.55;;;5.70;;
22064;SDS011;11197;53.110;8.468;2022-12-20T13:46:27;10.73;;;6.50;;
22064;SDS011;11197;53.110;8.468;2022-12-20T13:49:00;8.30;;;5.28;;
22064;SDS011;11197;53.110;8.468;2022-12-20T13:51:28;8.48;;;5.68;;
22064;SDS011;11197;53.110;8.468;2022-12-20T13:58:51;10.48;;;6.07;;
22064;SDS011;11197;53.110;8.468;2022-12-20T14:01:18;9.48;;;6.15;;
22064;SDS011;11197;53.110;8.468;2022-12-20T14:03:47;9.63;;;6.25;;
22064;SDS011;11197;53.110;8.468;2022-12-20T14:06:14;9.38;;;6.05;;
22064;SDS011;11197;53.110;8.468;2022-12-20T14:08:47;11.55;;;6.10;;
22064;SDS011;11197;53.110;8.468;2022-12-20T14:13:49;9.02;;;6.07;;
22064;SDS011;11197;53.110;8.468;2022-12-20T14:16:17;8.55;;;5.78;;
22064;SDS011;11197;53.110;8.468;2022-12-20T14:18:48;10.25;;;6.00;;
22064;SDS011;11197;53.110;8.468;2022-12-20T14:21:32;10.18;;;6.07;;
22064;SDS011;11197;53.110;8.468;2022-12-20T14:24:01;11.15;;;6.38;;
22064;SDS011;11197;53.110;8.468;2022-12-20T14:26:39;8.63;;;6.13;;
22064;SDS011;11197;53.110;8.468;2022-12-20T14:29:15;13.70;;;6.22;;
22064;SDS011;11197;53.110;8.468;2022-12-20T14:31:44;10.45;;;6.35;;
22064;SDS011;11197;53.110;8.468;2022-12-20T14:34:28;9.23;;;6.00;;
22064;SDS011;11197;53.110;8.468;2022-12-20T14:39:52;11.45;;;5.65;;
22064;SDS011;11197;53.110;8.468;2022-12-20T14:42:19;9.75;;;6.07;;
22064;SDS011;11197;53.110;8.468;2022-12-20T14:44:45;11.52;;;6.57;;
22064;SDS011;11197;53.110;8.468;2022-12-20T14:49:57;10.63;;;6.15;;
22064;SDS011;11197;53.110;8.468;2022-12-20T14:52:42;9.02;;;6.25;;
22064;SDS011;11197;53.110;8.468;2022-12-20T14:55:15;12.60;;;6.90;;
22064;SDS011;11197;53.110;8.468;2022-12-20T15:00:31;12.00;;;6.88;;
22064;SDS011;11197;53.110;8.468;2022-12-20T15:05:44;10.23;;;6.82;;
22064;SDS011;11197;53.110;8.468;2022-12-20T15:13:34;11.95;;;7.20;;
22064;SDS011;11197;53.110;8.468;2022-12-20T15:16:15;12.32;;;7.60;;
22064;SDS011;11197;53.110;8.468;2022-12-20T15:18:47;10.98;;;7.32;;
22064;SDS011;11197;53.110;8.468;2022-12-20T15:23:52;9.85;;;7.80;;
22064;SDS011;11197;53.110;8.468;2022-12-20T15:26:20;13.45;;;8.48;;
22064;SDS011;11197;53.110;8.468;2022-12-20T15:28:48;12.88;;;9.00;;
22064;SDS011;11197;53.110;8.468;2022-12-20T15:31:15;12.27;;;8.13;;
22064;SDS011;11197;53.110;8.468;2022-12-20T15:33:42;12.45;;;8.48;;
22064;SDS011;11197;53.110;8.468;2022-12-20T15:36:14;13.85;;;8.60;;
22064;SDS011;11197;53.110;8.468;2022-12-20T15:38:42;12.65;;;8.90;;
22064;SDS011;11197;53.110;8.468;2022-12-20T15:41:16;13.23;;;9.88;;
22064;SDS011;11197;53.110;8.468;2022-12-20T15:43:46;18.50;;;9.50;;
22064;SDS011;11197;53.110;8.468;2022-12-20T15:46:16;13.98;;;9.55;;
22064;SDS011;11197;53.110;8.468;2022-12-20T15:48:41;17.42;;;11.50;;
22064;SDS011;11197;53.110;8.468;2022-12-20T15:51:20;13.82;;;10.38;;
22064;SDS011;11197;53.110;8.468;2022-12-20T15:53:48;13.00;;;9.65;;
22064;SDS011;11197;53.110;8.468;2022-12-20T15:56:18;12.90;;;10.13;;
22064;SDS011;11197;53.110;8.468;2022-12-20T15:58:46;15.55;;;10.70;;
22064;SDS011;11197;53.110;8.468;2022-12-20T16:01:14;14.18;;;10.63;;
22064;SDS011;11197;53.110;8.468;2022-12-20T16:03:50;15.80;;;11.10;;
22064;SDS011;11197;53.110;8.468;2022-12-20T16:06:16;16.02;;;10.63;;
22064;SDS011;11197;53.110;8.468;2022-12-20T16:08:42;17.15;;;11.13;;
22064;SDS011;11197;53.110;8.468;2022-12-20T16:11:21;21.08;;;12.45;;
22064;SDS011;11197;53.110;8.468;2022-12-20T16:13:48;14.35;;;11.65;;
22064;SDS011;11197;53.110;8.468;2022-12-20T16:16:16;15.52;;;12.27;;
22064;SDS011;11197;53.110;8.468;2022-12-20T16:18:43;15.90;;;11.40;;
22064;SDS011;11197;53.110;8.468;2022-12-20T16:21:13;14.75;;;12.23;;
22064;SDS011;11197;53.110;8.468;2022-12-20T16:23:45;20.17;;;12.75;;
22064;SDS011;11197;53.110;8.468;2022-12-20T16:26:14;15.77;;;12.40;;
22064;SDS011;11197;53.110;8.468;2022-12-20T16:28:43;16.83;;;12.48;;
22064;SDS011;11197;53.110;8.468;2022-12-20T16:31:14;18.50;;;13.18;;
22064;SDS011;11197;53.110;8.468;2022-12-20T16:33:42;19.00;;;13.65;;
22064;SDS011;11197;53.110;8.468;2022-12-20T16:36:11;16.58;;;14.20;;
22064;SDS011;11197;53.110;8.468;2022-12-20T16:38:37;18.75;;;14.55;;
22064;SDS011;11197;53.110;8.468;2022-12-20T16:44:00;19.23;;;14.35;;
22064;SDS011;11197;53.110;8.468;2022-12-20T16:46:27;20.38;;;15.13;;
22064;SDS011;11197;53.110;8.468;2022-12-20T16:48:54;15.02;;;10.70;;
22064;SDS011;11197;53.110;8.468;2022-12-20T16:51:23;12.02;;;10.68;;
22064;SDS011;11197;53.110;8.468;2022-12-20T16:56:29;16.17;;;13.25;;
22064;SDS011;11197;53.110;8.468;2022-12-20T16:58:56;15.73;;;12.32;;
22064;SDS011;11197;53.110;8.468;2022-12-20T17:01:23;14.73;;;12.43;;
22064;SDS011;11197;53.110;8.468;2022-12-20T17:03:54;14.13;;;12.63;;
22064;SDS011;11197;53.110;8.468;2022-12-20T17:06:20;16.13;;;13.82;;
22064;SDS011;11197;53.110;8.468;2022-12-20T17:08:46;16.63;;;14.35;;
22064;SDS011;11197;53.110;8.468;2022-12-20T17:13:47;17.48;;;14.95;;
22064;SDS011;11197;53.110;8.468;2022-12-20T17:16:14;18.80;;;15.90;;
22064;SDS011;11197;53.110;8.468;2022-12-20T17:18:42;19.25;;;15.80;;
22064;SDS011;11197;53.110;8.468;2022-12-20T17:21:51;19.50;;;15.65;;
22064;SDS011;11197;53.110;8.468;2022-12-20T17:24:03;20.77;;;16.58;;
22064;SDS011;11197;53.110;8.468;2022-12-20T17:26:33;19.55;;;17.10;;
22064;SDS011;11197;53.110;8.468;2022-12-20T17:29:02;23.08;;;17.73;;
22064;SDS011;11197;53.110;8.468;2022-12-20T17:33:59;21.10;;;18.65;;
22064;SDS011;11197;53.110;8.468;2022-12-20T17:36:27;24.10;;;19.17;;
22064;SDS011;11197;53.110;8.468;2022-12-20T17:38:53;21.48;;;18.73;;
22064;SDS011;11197;53.110;8.468;2022-12-20T17:41:25;24.60;;;19.67;;
22064;SDS011;11197;53.110;8.468;2022-12-20T17:43:53;23.73;;;20.02;;
22064;SDS011;11197;53.110;8.468;2022-12-20T17:46:20;22.67;;;20.25;;
22064;SDS011;11197;53.110;8.468;2022-12-20T17:48:47;25.55;;;21.23;;
22064;SDS011;11197;53.110;8.468;2022-12-20T17:51:17;26.70;;;21.45;;
22064;SDS011;11197;53.110;8.468;2022-12-20T17:53:45;24.77;;;21.77;;
22064;SDS011;11197;53.110;8.468;2022-12-20T17:56:14;27.25;;;22.25;;